Belle Mead, New Jersey
Current Conditions -  °F | °C
As of 8:53 AM on Monday 24 Nov 2014 (Local Time) from KSMQ Reporting Station
Overcast Overcast  
Wind Chill: 19°   Ceiling: 2100
Heat Index: 19°   Visibility: 10mi
Dew Point: 16°   Wind: 6mph
Humidity: 84%   Direction: 200°SSW
Pressure: 29.65"   Gusts: NA
Location:  40.47°N, 74.66°W
Report Text: KSMQ 241353Z AUTO 20005KT 10SM BKN021 OVC030 19/16 A2965 RMK AO2 SLP040 T01890161
Loading
Personal Weather Stations






























Interactive Weather Map New forecast layout! Learn more

10-Day Weather Forecast

Advertisements
Track Severe Weather on mobile